createdAt,value
2023-05-04T00:02:14.599Z,7.00
2023-05-04T00:07:17.935Z,7.00
2023-05-04T00:12:21.427Z,7.00
2023-05-04T00:17:26.213Z,6.90
2023-05-04T00:22:29.575Z,6.80
2023-05-04T00:27:32.817Z,6.50
2023-05-04T00:32:47.093Z,6.50
2023-05-04T00:37:50.528Z,6.50
2023-05-04T00:42:54.021Z,6.50
2023-05-04T00:47:59.303Z,6.50
2023-05-04T00:53:08.689Z,6.50
2023-05-04T00:58:12.200Z,6.70
2023-05-04T01:03:17.354Z,6.80
2023-05-04T01:08:28.827Z,6.70
2023-05-04T01:13:35.973Z,6.50
2023-05-04T01:18:41.420Z,6.30
2023-05-04T01:23:46.300Z,6.30
2023-05-04T01:28:53.263Z,6.10
2023-05-04T01:33:57.334Z,6.20
2023-05-04T01:39:02.335Z,6.20
2023-05-04T01:44:06.373Z,6.10
2023-05-04T01:49:09.595Z,6.20
2023-05-04T01:54:14.444Z,6.20
2023-05-04T01:59:17.796Z,6.30
2023-05-04T02:04:21.175Z,6.30
2023-05-04T02:09:26.320Z,6.30
2023-05-04T02:14:29.917Z,6.30
2023-05-04T02:19:33.277Z,6.40
2023-05-04T02:24:40.426Z,6.30
2023-05-04T02:29:43.756Z,6.50
2023-05-04T02:34:47.167Z,6.40
2023-05-04T02:39:51.855Z,6.30
2023-05-04T02:44:57.840Z,6.20
2023-05-04T02:50:02.415Z,6.30
2023-05-04T02:55:08.075Z,6.40
2023-05-04T03:00:14.181Z,6.60
2023-05-04T03:05:17.478Z,6.50
2023-05-04T03:10:22.185Z,6.50
2023-05-04T03:15:25.569Z,6.50
2023-05-04T03:20:29.142Z,6.40
2023-05-04T03:25:34.771Z,6.30
2023-05-04T03:30:38.332Z,6.20
2023-05-04T03:35:41.692Z,5.90
2023-05-04T03:40:47.530Z,5.70
2023-05-04T03:45:50.935Z,5.30
2023-05-04T03:50:54.691Z,5.10
2023-05-04T03:55:59.605Z,5.00
2023-05-04T04:01:03.640Z,4.90
2023-05-04T04:06:08.240Z,4.90
2023-05-04T04:11:16.567Z,4.70
2023-05-04T04:16:20.691Z,4.70
2023-05-04T04:21:24.077Z,4.70
2023-05-04T04:26:30.496Z,4.90
2023-05-04T04:31:34.295Z,5.30
2023-05-04T04:36:37.776Z,5.60
2023-05-04T04:41:42.483Z,5.80
2023-05-04T04:46:47.476Z,5.90
2023-05-04T04:51:50.942Z,5.90
2023-05-04T04:56:59.666Z,5.90
2023-05-04T05:02:03.232Z,6.00
2023-05-04T05:07:08.987Z,6.20
2023-05-04T05:12:13.937Z,6.40
2023-05-04T05:17:18.245Z,6.60
2023-05-04T05:27:54.823Z,7.20
2023-05-04T05:32:58.085Z,7.60
2023-05-04T05:38:02.731Z,8.00
2023-05-04T05:43:07.504Z,8.30
2023-05-04T05:48:12.286Z,8.60
2023-05-04T05:53:18.690Z,8.70
2023-05-04T05:58:24.188Z,8.70
2023-05-04T06:03:31.078Z,8.90
2023-05-04T06:08:36.255Z,9.40
2023-05-04T06:13:42.615Z,13.60
2023-05-04T06:18:49.842Z,18.10
2023-05-04T06:23:54.710Z,21.50
2023-05-04T06:28:59.895Z,24.30
2023-05-04T06:34:05.640Z,25.70
2023-05-04T06:39:19.620Z,26.50
2023-05-04T06:44:52.131Z,27.20
2023-05-04T06:49:55.914Z,28.30
2023-05-04T06:55:02.545Z,28.60
2023-05-04T07:05:46.499Z,27.60
2023-05-04T07:10:49.954Z,27.60
2023-05-04T07:15:55.690Z,27.40
2023-05-04T07:21:21.774Z,27.40
2023-05-04T07:26:35.092Z,28.30
2023-05-04T07:37:14.307Z,27.40
2023-05-04T07:42:37.067Z,27.30
2023-05-04T07:47:46.230Z,28.10
2023-05-04T07:53:05.078Z,29.10
2023-05-04T07:58:17.020Z,30.00
2023-05-04T08:03:45.422Z,29.60
2023-05-04T08:08:52.776Z,29.20
2023-05-04T08:13:57.798Z,28.00
2023-05-04T08:19:13.498Z,28.20
2023-05-04T08:24:17.574Z,28.10
2023-05-04T08:35:06.294Z,27.80
2023-05-04T08:40:12.628Z,27.20
2023-05-04T08:45:40.855Z,27.00
2023-05-04T08:50:47.350Z,27.10
2023-05-04T08:55:59.250Z,27.00
2023-05-04T09:01:33.184Z,27.20
2023-05-04T09:06:47.829Z,27.40
2023-05-04T09:12:03.918Z,26.40
2023-05-04T09:17:28.083Z,26.50
2023-05-04T09:22:42.449Z,26.50
2023-05-04T09:27:59.017Z,27.10
2023-05-04T09:33:05.160Z,27.50
2023-05-04T09:38:10.411Z,27.00
2023-05-04T09:43:17.345Z,28.10
2023-05-04T09:48:31.946Z,27.80
2023-05-04T09:53:41.902Z,26.90
2023-05-04T09:58:49.936Z,27.40
2023-05-04T10:04:12.809Z,27.00
2023-05-04T10:09:24.916Z,26.70
2023-05-04T10:14:35.675Z,25.50
2023-05-04T10:20:06.309Z,24.80
2023-05-04T10:25:25.224Z,24.60
2023-05-04T10:30:30.244Z,23.70
2023-05-04T10:35:34.120Z,23.90
2023-05-04T10:40:45.694Z,23.90
2023-05-04T10:45:49.637Z,23.70
2023-05-04T10:50:53.353Z,23.90
2023-05-04T10:55:58.406Z,24.20
2023-05-04T11:01:17.125Z,24.30
2023-05-04T11:06:24.801Z,24.40
2023-05-04T11:11:40.247Z,24.60
2023-05-04T11:16:45.809Z,24.50
2023-05-04T11:21:51.007Z,24.70
2023-05-04T11:27:05.348Z,24.80
2023-05-04T11:32:10.844Z,24.30
2023-05-04T11:37:16.788Z,24.60
2023-05-04T11:42:22.233Z,24.50
2023-05-04T11:47:27.599Z,24.80
2023-05-04T11:52:33.788Z,25.00
2023-05-04T11:57:41.460Z,25.40
2023-05-04T12:02:52.890Z,24.80
2023-05-04T12:07:59.782Z,25.10
2023-05-04T12:13:06.257Z,24.80
2023-05-04T12:23:42.020Z,25.50
2023-05-04T12:28:47.452Z,24.80
2023-05-04T12:33:51.648Z,24.70
2023-05-04T12:38:56.723Z,24.60
2023-05-04T12:44:05.138Z,25.00
2023-05-04T12:49:08.588Z,24.50
2023-05-04T12:54:25.245Z,24.50
2023-05-04T12:59:36.274Z,24.30
2023-05-04T13:04:46.408Z,24.90
2023-05-04T13:09:51.451Z,24.80
2023-05-04T13:14:59.004Z,24.60
2023-05-04T13:20:07.049Z,24.80
2023-05-04T13:25:11.831Z,24.80
2023-05-04T13:30:18.069Z,24.60
2023-05-04T13:35:23.656Z,24.60
2023-05-04T13:40:32.050Z,24.40
2023-05-04T13:45:41.255Z,24.40
2023-05-04T13:50:48.444Z,24.80
2023-05-04T13:55:51.810Z,24.80
2023-05-04T14:01:03.020Z,24.40
2023-05-04T14:06:07.819Z,24.60
2023-05-04T14:11:16.482Z,24.40
2023-05-04T14:16:24.965Z,24.40
2023-05-04T14:21:28.837Z,24.50
2023-05-04T14:26:35.830Z,24.40
2023-05-04T14:31:47.172Z,24.40
2023-05-04T14:36:53.100Z,24.60
2023-05-04T14:42:02.296Z,24.70
2023-05-04T14:47:10.998Z,24.70
2023-05-04T14:52:14.818Z,24.80
2023-05-04T14:57:18.200Z,24.70
2023-05-04T15:02:23.139Z,24.60
2023-05-04T15:07:31.958Z,24.60
2023-05-04T15:12:41.835Z,24.60
2023-05-04T15:17:49.826Z,24.30
2023-05-04T15:22:55.211Z,24.10
2023-05-04T15:27:58.564Z,23.90
2023-05-04T15:33:06.818Z,24.00
2023-05-04T15:38:10.156Z,23.90
2023-05-04T15:43:13.402Z,23.90
2023-05-04T15:48:18.109Z,24.10
2023-05-04T15:53:21.622Z,24.20
2023-05-04T15:58:25.220Z,24.10
2023-05-04T16:03:31.412Z,23.90
2023-05-04T16:08:34.884Z,23.90
2023-05-04T16:13:38.251Z,23.70
2023-05-04T16:18:46.132Z,23.60
2023-05-04T16:23:49.928Z,23.60
2023-05-04T16:28:53.357Z,23.50
2023-05-04T16:34:00.270Z,23.50
2023-05-04T16:39:05.468Z,23.50
2023-05-04T16:44:08.749Z,23.50
2023-05-04T16:49:14.648Z,23.40
2023-05-04T16:54:24.345Z,23.50
2023-05-04T16:59:27.733Z,23.40
2023-05-04T17:04:32.394Z,23.20
2023-05-04T17:09:36.294Z,23.10
2023-05-04T17:14:39.701Z,22.90
2023-05-04T17:19:44.358Z,22.90
2023-05-04T17:24:48.933Z,22.70
2023-05-04T17:29:52.243Z,22.40
2023-05-04T17:35:01.266Z,22.30
2023-05-04T17:40:11.864Z,22.10
2023-05-04T17:45:15.460Z,22.00
2023-05-04T17:50:21.388Z,21.70
2023-05-04T17:55:26.006Z,21.50
2023-05-04T18:00:29.497Z,21.30
2023-05-04T18:05:34.106Z,21.00
2023-05-04T18:10:39.502Z,20.60
2023-05-04T18:15:43.181Z,20.20
2023-05-04T18:20:49.687Z,19.70
2023-05-04T18:25:53.021Z,19.20
2023-05-04T18:30:56.409Z,18.80
2023-05-04T18:36:03.636Z,18.40
2023-05-04T18:41:07.678Z,18.10
2023-05-04T18:46:11.043Z,17.80
2023-05-04T18:51:18.882Z,17.60
2023-05-04T18:56:22.299Z,17.60
2023-05-04T19:01:26.521Z,17.50
2023-05-04T19:06:36.462Z,17.60
2023-05-04T19:11:44.610Z,17.60
2023-05-04T19:16:47.976Z,17.60
2023-05-04T19:21:53.960Z,17.50
2023-05-04T19:26:59.425Z,17.40
2023-05-04T19:32:15.811Z,17.60
2023-05-04T19:37:29.892Z,17.90
2023-05-04T19:42:35.412Z,18.10
2023-05-04T19:47:40.903Z,18.20
2023-05-04T19:52:45.693Z,18.20
2023-05-04T19:57:50.149Z,18.00
2023-05-04T20:02:55.531Z,17.40
2023-05-04T20:08:04.746Z,17.00
2023-05-04T20:13:08.734Z,16.70
2023-05-04T20:18:12.160Z,16.30
2023-05-04T20:23:16.819Z,16.10
2023-05-04T20:28:21.206Z,16.80
2023-05-04T20:33:24.522Z,17.10
2023-05-04T20:38:29.388Z,17.10
2023-05-04T20:43:33.839Z,17.00
2023-05-04T20:48:37.154Z,16.80
2023-05-04T20:53:43.334Z,16.80
2023-05-04T20:58:46.799Z,17.00
2023-05-04T21:03:52.058Z,17.00
2023-05-04T21:08:57.281Z,17.20
2023-05-04T21:14:00.745Z,16.80
2023-05-04T21:19:04.231Z,15.90
2023-05-04T21:24:12.732Z,15.30
2023-05-04T21:29:16.577Z,14.70
2023-05-04T21:34:19.800Z,14.30
2023-05-04T21:39:24.470Z,14.00
2023-05-04T21:44:27.847Z,13.80
2023-05-04T21:49:31.090Z,13.70
2023-05-04T21:54:36.441Z,13.60
2023-05-04T21:59:39.844Z,13.40
2023-05-04T22:04:44.066Z,13.30
2023-05-04T22:09:48.913Z,13.20
2023-05-04T22:14:53.186Z,13.20
2023-05-04T22:19:56.542Z,13.10
2023-05-04T22:25:04.230Z,13.00
2023-05-04T22:30:09.789Z,12.90
2023-05-04T22:35:13.412Z,12.80
2023-05-04T22:40:18.292Z,12.80
2023-05-04T22:45:26.972Z,12.90
2023-05-04T22:50:31.663Z,12.90
2023-05-04T22:55:36.460Z,12.90
2023-05-04T23:00:39.815Z,13.00
2023-05-04T23:05:43.150Z,12.90
2023-05-04T23:10:48.004Z,12.90
2023-05-04T23:15:51.222Z,12.90
2023-05-04T23:20:54.684Z,12.90
2023-05-04T23:25:59.489Z,12.90
2023-05-04T23:31:03.448Z,12.90
2023-05-04T23:36:06.974Z,12.80
2023-05-04T23:41:12.776Z,12.80
2023-05-04T23:46:16.064Z,12.80
2023-05-04T23:51:19.442Z,12.70
2023-05-04T23:56:24.286Z,12.60
